sensor_id;sensor_type;location;lat;lon;timestamp;P1;durP1;ratioP1;P2;durP2;ratioP2
55007;SDS011;40902;45.116;21.296;2022-11-15T00:01:38;21.67;;;13.50;;
55007;SDS011;40902;45.116;21.296;2022-11-15T00:04:04;21.60;;;13.27;;
55007;SDS011;40902;45.116;21.296;2022-11-15T00:06:30;18.83;;;12.27;;
55007;SDS011;40902;45.116;21.296;2022-11-15T00:08:59;23.20;;;14.10;;
55007;SDS011;40902;45.116;21.296;2022-11-15T00:11:26;19.63;;;12.82;;
55007;SDS011;40902;45.116;21.296;2022-11-15T00:13:54;20.60;;;12.77;;
55007;SDS011;40902;45.116;21.296;2022-11-15T00:16:21;20.80;;;12.75;;
55007;SDS011;40902;45.116;21.296;2022-11-15T00:18:47;21.85;;;14.65;;
55007;SDS011;40902;45.116;21.296;2022-11-15T00:21:13;20.15;;;12.95;;
55007;SDS011;40902;45.116;21.296;2022-11-15T00:23:39;18.60;;;12.73;;
55007;SDS011;40902;45.116;21.296;2022-11-15T00:26:05;25.75;;;14.40;;
55007;SDS011;40902;45.116;21.296;2022-11-15T00:28:31;24.40;;;14.13;;
55007;SDS011;40902;45.116;21.296;2022-11-15T00:31:01;19.13;;;12.55;;
55007;SDS011;40902;45.116;21.296;2022-11-15T00:33:27;20.48;;;13.63;;
55007;SDS011;40902;45.116;21.296;2022-11-15T00:35:53;19.08;;;12.77;;
55007;SDS011;40902;45.116;21.296;2022-11-15T00:38:24;20.38;;;12.45;;
55007;SDS011;40902;45.116;21.296;2022-11-15T00:40:49;22.23;;;12.98;;
55007;SDS011;40902;45.116;21.296;2022-11-15T00:43:15;18.83;;;13.43;;
55007;SDS011;40902;45.116;21.296;2022-11-15T00:45:41;20.25;;;12.85;;
55007;SDS011;40902;45.116;21.296;2022-11-15T00:48:07;20.92;;;13.55;;
55007;SDS011;40902;45.116;21.296;2022-11-15T00:50:34;20.45;;;12.57;;
55007;SDS011;40902;45.116;21.296;2022-11-15T00:52:59;19.55;;;12.48;;
55007;SDS011;40902;45.116;21.296;2022-11-15T00:55:25;19.52;;;11.60;;
55007;SDS011;40902;45.116;21.296;2022-11-15T00:57:51;19.00;;;12.00;;
55007;SDS011;40902;45.116;21.296;2022-11-15T01:00:17;19.58;;;12.40;;
55007;SDS011;40902;45.116;21.296;2022-11-15T01:02:42;20.15;;;13.45;;
55007;SDS011;40902;45.116;21.296;2022-11-15T01:05:08;18.83;;;12.30;;
55007;SDS011;40902;45.116;21.296;2022-11-15T01:07:34;19.42;;;12.15;;
55007;SDS011;40902;45.116;21.296;2022-11-15T01:09:59;18.20;;;12.65;;
55007;SDS011;40902;45.116;21.296;2022-11-15T01:12:25;19.85;;;12.52;;
55007;SDS011;40902;45.116;21.296;2022-11-15T01:14:51;18.35;;;11.63;;
55007;SDS011;40902;45.116;21.296;2022-11-15T01:17:17;18.95;;;12.85;;
55007;SDS011;40902;45.116;21.296;2022-11-15T01:19:43;19.58;;;11.93;;
55007;SDS011;40902;45.116;21.296;2022-11-15T01:22:09;19.42;;;12.00;;
55007;SDS011;40902;45.116;21.296;2022-11-15T01:24:34;17.52;;;11.95;;
55007;SDS011;40902;45.116;21.296;2022-11-15T01:27:00;18.85;;;11.68;;
55007;SDS011;40902;45.116;21.296;2022-11-15T01:29:26;17.75;;;11.07;;
55007;SDS011;40902;45.116;21.296;2022-11-15T01:31:52;17.90;;;10.85;;
55007;SDS011;40902;45.116;21.296;2022-11-15T01:34:19;18.63;;;12.75;;
55007;SDS011;40902;45.116;21.296;2022-11-15T01:36:44;16.77;;;10.45;;
55007;SDS011;40902;45.116;21.296;2022-11-15T01:39:10;16.77;;;10.70;;
55007;SDS011;40902;45.116;21.296;2022-11-15T01:41:36;15.65;;;10.18;;
55007;SDS011;40902;45.116;21.296;2022-11-15T01:46:59;15.75;;;10.32;;
55007;SDS011;40902;45.116;21.296;2022-11-15T01:49:28;18.10;;;11.18;;
55007;SDS011;40902;45.116;21.296;2022-11-15T01:51:57;17.00;;;10.95;;
55007;SDS011;40902;45.116;21.296;2022-11-15T01:54:25;15.73;;;10.75;;
55007;SDS011;40902;45.116;21.296;2022-11-15T01:57:01;16.85;;;10.95;;
55007;SDS011;40902;45.116;21.296;2022-11-15T01:59:31;16.90;;;10.73;;
55007;SDS011;40902;45.116;21.296;2022-11-15T02:01:57;14.32;;;10.27;;
55007;SDS011;40902;45.116;21.296;2022-11-15T02:04:31;17.73;;;10.48;;
55007;SDS011;40902;45.116;21.296;2022-11-15T02:06:59;17.48;;;10.93;;
55007;SDS011;40902;45.116;21.296;2022-11-15T02:09:28;17.45;;;11.63;;
55007;SDS011;40902;45.116;21.296;2022-11-15T02:11:54;18.13;;;10.32;;
55007;SDS011;40902;45.116;21.296;2022-11-15T02:14:21;17.35;;;11.02;;
55007;SDS011;40902;45.116;21.296;2022-11-15T02:30:51;15.88;;;10.40;;
55007;SDS011;40902;45.116;21.296;2022-11-15T02:44:04;15.65;;;10.25;;
55007;SDS011;40902;45.116;21.296;2022-11-15T02:47:00;16.08;;;10.38;;
55007;SDS011;40902;45.116;21.296;2022-11-15T02:49:38;18.02;;;10.95;;
55007;SDS011;40902;45.116;21.296;2022-11-15T02:52:22;14.98;;;10.65;;
55007;SDS011;40902;45.116;21.296;2022-11-15T02:55:00;18.52;;;11.00;;
55007;SDS011;40902;45.116;21.296;2022-11-15T03:00:05;16.75;;;10.07;;
55007;SDS011;40902;45.116;21.296;2022-11-15T03:05:46;16.75;;;10.55;;
55007;SDS011;40902;45.116;21.296;2022-11-15T03:11:12;14.07;;;9.85;;
55007;SDS011;40902;45.116;21.296;2022-11-15T03:22:07;17.20;;;10.55;;
55007;SDS011;40902;45.116;21.296;2022-11-15T03:24:36;17.65;;;10.48;;
55007;SDS011;40902;45.116;21.296;2022-11-15T03:27:04;15.25;;;10.07;;
55007;SDS011;40902;45.116;21.296;2022-11-15T03:29:42;15.15;;;9.85;;
55007;SDS011;40902;45.116;21.296;2022-11-15T03:32:12;16.23;;;9.27;;
55007;SDS011;40902;45.116;21.296;2022-11-15T03:37:39;15.77;;;10.40;;
55007;SDS011;40902;45.116;21.296;2022-11-15T03:40:22;14.65;;;9.65;;
55007;SDS011;40902;45.116;21.296;2022-11-15T03:45:33;14.48;;;9.60;;
55007;SDS011;40902;45.116;21.296;2022-11-15T03:48:07;15.77;;;10.60;;
55007;SDS011;40902;45.116;21.296;2022-11-15T03:50:39;14.20;;;10.00;;
55007;SDS011;40902;45.116;21.296;2022-11-15T03:53:05;15.00;;;10.60;;
55007;SDS011;40902;45.116;21.296;2022-11-15T03:55:32;15.63;;;10.25;;
55007;SDS011;40902;45.116;21.296;2022-11-15T03:57:58;15.93;;;10.18;;
55007;SDS011;40902;45.116;21.296;2022-11-15T04:00:25;13.15;;;9.63;;
55007;SDS011;40902;45.116;21.296;2022-11-15T04:02:51;16.27;;;10.10;;
55007;SDS011;40902;45.116;21.296;2022-11-15T04:05:17;15.05;;;9.85;;
55007;SDS011;40902;45.116;21.296;2022-11-15T04:07:43;17.42;;;10.13;;
55007;SDS011;40902;45.116;21.296;2022-11-15T04:10:10;16.17;;;10.60;;
55007;SDS011;40902;45.116;21.296;2022-11-15T04:12:37;15.45;;;10.35;;
55007;SDS011;40902;45.116;21.296;2022-11-15T04:15:12;17.83;;;10.68;;
55007;SDS011;40902;45.116;21.296;2022-11-15T04:17:43;17.75;;;11.27;;
55007;SDS011;40902;45.116;21.296;2022-11-15T04:23:03;15.27;;;10.00;;
55007;SDS011;40902;45.116;21.296;2022-11-15T04:25:52;15.60;;;10.50;;
55007;SDS011;40902;45.116;21.296;2022-11-15T04:28:20;16.95;;;11.13;;
55007;SDS011;40902;45.116;21.296;2022-11-15T04:30:46;16.38;;;11.13;;
55007;SDS011;40902;45.116;21.296;2022-11-15T04:33:12;17.65;;;11.90;;
55007;SDS011;40902;45.116;21.296;2022-11-15T04:35:38;16.95;;;11.15;;
55007;SDS011;40902;45.116;21.296;2022-11-15T04:38:04;17.48;;;11.65;;
55007;SDS011;40902;45.116;21.296;2022-11-15T04:40:31;15.93;;;10.75;;
55007;SDS011;40902;45.116;21.296;2022-11-15T04:42:57;16.73;;;11.45;;
55007;SDS011;40902;45.116;21.296;2022-11-15T04:45:23;16.15;;;10.82;;
55007;SDS011;40902;45.116;21.296;2022-11-15T04:47:49;17.08;;;11.65;;
55007;SDS011;40902;45.116;21.296;2022-11-15T04:50:15;16.55;;;10.38;;
55007;SDS011;40902;45.116;21.296;2022-11-15T04:52:41;16.25;;;11.50;;
55007;SDS011;40902;45.116;21.296;2022-11-15T04:55:11;16.88;;;11.55;;
55007;SDS011;40902;45.116;21.296;2022-11-15T04:57:37;19.70;;;12.05;;
55007;SDS011;40902;45.116;21.296;2022-11-15T05:00:03;19.65;;;12.30;;
55007;SDS011;40902;45.116;21.296;2022-11-15T05:02:31;18.20;;;11.70;;
55007;SDS011;40902;45.116;21.296;2022-11-15T05:05:15;15.95;;;10.98;;
55007;SDS011;40902;45.116;21.296;2022-11-15T05:07:41;16.58;;;11.00;;
55007;SDS011;40902;45.116;21.296;2022-11-15T05:10:07;16.15;;;11.40;;
55007;SDS011;40902;45.116;21.296;2022-11-15T05:12:33;18.33;;;11.82;;
55007;SDS011;40902;45.116;21.296;2022-11-15T05:14:59;19.63;;;12.00;;
55007;SDS011;40902;45.116;21.296;2022-11-15T05:17:25;16.73;;;11.90;;
55007;SDS011;40902;45.116;21.296;2022-11-15T05:19:50;15.75;;;11.07;;
55007;SDS011;40902;45.116;21.296;2022-11-15T05:22:17;19.48;;;12.20;;
55007;SDS011;40902;45.116;21.296;2022-11-15T05:24:43;18.10;;;11.65;;
55007;SDS011;40902;45.116;21.296;2022-11-15T05:27:09;20.05;;;12.82;;
55007;SDS011;40902;45.116;21.296;2022-11-15T05:29:35;15.32;;;10.73;;
55007;SDS011;40902;45.116;21.296;2022-11-15T05:32:01;17.10;;;11.80;;
55007;SDS011;40902;45.116;21.296;2022-11-15T05:34:30;18.88;;;12.38;;
55007;SDS011;40902;45.116;21.296;2022-11-15T05:36:56;17.60;;;11.95;;
55007;SDS011;40902;45.116;21.296;2022-11-15T05:39:22;17.80;;;12.55;;
55007;SDS011;40902;45.116;21.296;2022-11-15T05:41:48;17.52;;;12.13;;
55007;SDS011;40902;45.116;21.296;2022-11-15T05:44:19;16.27;;;11.30;;
55007;SDS011;40902;45.116;21.296;2022-11-15T05:46:46;17.92;;;12.90;;
55007;SDS011;40902;45.116;21.296;2022-11-15T05:49:15;17.42;;;11.77;;
55007;SDS011;40902;45.116;21.296;2022-11-15T05:51:44;19.85;;;12.27;;
55007;SDS011;40902;45.116;21.296;2022-11-15T05:54:12;17.92;;;12.40;;
55007;SDS011;40902;45.116;21.296;2022-11-15T05:56:39;21.35;;;13.15;;
55007;SDS011;40902;45.116;21.296;2022-11-15T05:59:05;19.20;;;13.60;;
55007;SDS011;40902;45.116;21.296;2022-11-15T06:01:33;19.67;;;13.25;;
55007;SDS011;40902;45.116;21.296;2022-11-15T06:03:59;20.85;;;12.85;;
55007;SDS011;40902;45.116;21.296;2022-11-15T06:06:26;21.17;;;12.82;;
55007;SDS011;40902;45.116;21.296;2022-11-15T06:08:52;18.23;;;12.77;;
55007;SDS011;40902;45.116;21.296;2022-11-15T06:11:18;19.20;;;12.60;;
55007;SDS011;40902;45.116;21.296;2022-11-15T06:13:44;22.13;;;14.13;;
55007;SDS011;40902;45.116;21.296;2022-11-15T06:16:10;21.92;;;13.55;;
55007;SDS011;40902;45.116;21.296;2022-11-15T06:18:36;20.08;;;13.60;;
55007;SDS011;40902;45.116;21.296;2022-11-15T06:21:02;17.77;;;12.32;;
55007;SDS011;40902;45.116;21.296;2022-11-15T06:23:31;20.15;;;14.00;;
55007;SDS011;40902;45.116;21.296;2022-11-15T06:25:57;21.17;;;14.10;;
55007;SDS011;40902;45.116;21.296;2022-11-15T06:28:24;21.83;;;13.77;;
55007;SDS011;40902;45.116;21.296;2022-11-15T06:30:52;21.45;;;14.65;;
55007;SDS011;40902;45.116;21.296;2022-11-15T06:33:18;20.98;;;13.73;;
55007;SDS011;40902;45.116;21.296;2022-11-15T06:35:44;20.13;;;13.85;;
55007;SDS011;40902;45.116;21.296;2022-11-15T06:38:09;22.08;;;13.95;;
55007;SDS011;40902;45.116;21.296;2022-11-15T06:40:36;21.75;;;14.00;;
55007;SDS011;40902;45.116;21.296;2022-11-15T06:43:03;22.35;;;14.45;;
55007;SDS011;40902;45.116;21.296;2022-11-15T06:45:30;22.23;;;14.40;;
55007;SDS011;40902;45.116;21.296;2022-11-15T06:47:56;21.35;;;13.35;;
55007;SDS011;40902;45.116;21.296;2022-11-15T06:50:23;25.80;;;14.77;;
55007;SDS011;40902;45.116;21.296;2022-11-15T06:52:49;24.50;;;14.93;;
55007;SDS011;40902;45.116;21.296;2022-11-15T06:55:15;22.00;;;15.27;;
55007;SDS011;40902;45.116;21.296;2022-11-15T06:57:50;25.25;;;14.93;;
55007;SDS011;40902;45.116;21.296;2022-11-15T07:00:17;22.77;;;15.65;;
55007;SDS011;40902;45.116;21.296;2022-11-15T07:02:44;23.80;;;15.10;;
55007;SDS011;40902;45.116;21.296;2022-11-15T07:05:11;28.05;;;17.38;;
55007;SDS011;40902;45.116;21.296;2022-11-15T07:07:37;29.15;;;18.17;;
55007;SDS011;40902;45.116;21.296;2022-11-15T07:10:03;27.50;;;17.75;;
55007;SDS011;40902;45.116;21.296;2022-11-15T07:12:30;36.20;;;21.13;;
55007;SDS011;40902;45.116;21.296;2022-11-15T07:14:55;27.65;;;17.58;;
55007;SDS011;40902;45.116;21.296;2022-11-15T07:17:21;31.20;;;19.75;;
55007;SDS011;40902;45.116;21.296;2022-11-15T07:19:47;30.08;;;17.30;;
55007;SDS011;40902;45.116;21.296;2022-11-15T07:22:12;24.70;;;16.48;;
55007;SDS011;40902;45.116;21.296;2022-11-15T07:24:38;25.65;;;15.13;;
55007;SDS011;40902;45.116;21.296;2022-11-15T07:27:04;29.67;;;17.60;;
55007;SDS011;40902;45.116;21.296;2022-11-15T07:29:29;25.17;;;15.65;;
55007;SDS011;40902;45.116;21.296;2022-11-15T07:31:55;27.23;;;16.30;;
55007;SDS011;40902;45.116;21.296;2022-11-15T07:34:21;26.38;;;15.52;;
55007;SDS011;40902;45.116;21.296;2022-11-15T07:36:47;26.95;;;16.30;;
55007;SDS011;40902;45.116;21.296;2022-11-15T07:39:12;25.77;;;15.63;;
55007;SDS011;40902;45.116;21.296;2022-11-15T07:41:39;27.77;;;16.25;;
55007;SDS011;40902;45.116;21.296;2022-11-15T07:44:04;24.30;;;15.60;;
55007;SDS011;40902;45.116;21.296;2022-11-15T07:46:30;27.30;;;17.00;;
55007;SDS011;40902;45.116;21.296;2022-11-15T07:48:56;26.13;;;17.30;;
55007;SDS011;40902;45.116;21.296;2022-11-15T07:51:22;23.95;;;15.68;;
55007;SDS011;40902;45.116;21.296;2022-11-15T07:53:48;24.98;;;16.08;;
55007;SDS011;40902;45.116;21.296;2022-11-15T07:56:14;33.00;;;16.23;;
55007;SDS011;40902;45.116;21.296;2022-11-15T07:58:40;26.55;;;16.42;;
55007;SDS011;40902;45.116;21.296;2022-11-15T08:01:06;28.15;;;16.67;;
55007;SDS011;40902;45.116;21.296;2022-11-15T08:03:34;27.15;;;16.58;;
55007;SDS011;40902;45.116;21.296;2022-11-15T08:06:00;28.25;;;18.58;;
55007;SDS011;40902;45.116;21.296;2022-11-15T08:08:26;27.20;;;17.20;;
55007;SDS011;40902;45.116;21.296;2022-11-15T08:10:52;26.95;;;16.48;;
55007;SDS011;40902;45.116;21.296;2022-11-15T08:13:17;29.92;;;18.02;;
55007;SDS011;40902;45.116;21.296;2022-11-15T08:15:43;29.77;;;16.92;;
55007;SDS011;40902;45.116;21.296;2022-11-15T08:18:11;26.92;;;16.52;;
55007;SDS011;40902;45.116;21.296;2022-11-15T08:20:40;28.67;;;18.33;;
55007;SDS011;40902;45.116;21.296;2022-11-15T08:23:07;27.15;;;15.93;;
55007;SDS011;40902;45.116;21.296;2022-11-15T08:25:35;31.00;;;18.15;;
55007;SDS011;40902;45.116;21.296;2022-11-15T08:28:03;26.95;;;16.85;;
55007;SDS011;40902;45.116;21.296;2022-11-15T08:30:30;27.77;;;17.83;;
55007;SDS011;40902;45.116;21.296;2022-11-15T08:33:01;30.13;;;17.10;;
55007;SDS011;40902;45.116;21.296;2022-11-15T08:35:27;31.08;;;18.15;;
55007;SDS011;40902;45.116;21.296;2022-11-15T08:37:53;27.33;;;17.05;;
55007;SDS011;40902;45.116;21.296;2022-11-15T08:40:20;28.05;;;17.23;;
55007;SDS011;40902;45.116;21.296;2022-11-15T08:42:46;26.48;;;18.30;;
55007;SDS011;40902;45.116;21.296;2022-11-15T08:45:12;27.17;;;16.27;;
55007;SDS011;40902;45.116;21.296;2022-11-15T08:47:38;27.58;;;16.77;;
55007;SDS011;40902;45.116;21.296;2022-11-15T08:50:04;27.80;;;16.40;;
55007;SDS011;40902;45.116;21.296;2022-11-15T08:52:30;29.05;;;18.05;;
55007;SDS011;40902;45.116;21.296;2022-11-15T08:54:57;39.25;;;23.05;;
55007;SDS011;40902;45.116;21.296;2022-11-15T08:57:23;30.50;;;18.45;;
55007;SDS011;40902;45.116;21.296;2022-11-15T08:59:49;41.45;;;22.17;;
55007;SDS011;40902;45.116;21.296;2022-11-15T09:02:15;31.17;;;19.00;;
55007;SDS011;40902;45.116;21.296;2022-11-15T09:04:41;36.35;;;20.75;;
55007;SDS011;40902;45.116;21.296;2022-11-15T09:07:08;37.58;;;20.02;;
55007;SDS011;40902;45.116;21.296;2022-11-15T09:09:35;27.80;;;17.63;;
55007;SDS011;40902;45.116;21.296;2022-11-15T09:12:01;25.92;;;16.83;;
55007;SDS011;40902;45.116;21.296;2022-11-15T09:14:27;35.90;;;19.77;;
55007;SDS011;40902;45.116;21.296;2022-11-15T09:16:53;30.50;;;18.90;;
55007;SDS011;40902;45.116;21.296;2022-11-15T09:19:20;39.78;;;22.27;;
55007;SDS011;40902;45.116;21.296;2022-11-15T09:21:46;41.53;;;21.27;;
55007;SDS011;40902;45.116;21.296;2022-11-15T09:24:11;36.75;;;19.85;;
55007;SDS011;40902;45.116;21.296;2022-11-15T09:26:37;33.13;;;18.50;;
55007;SDS011;40902;45.116;21.296;2022-11-15T09:29:03;32.28;;;20.63;;
55007;SDS011;40902;45.116;21.296;2022-11-15T09:31:28;32.30;;;18.83;;
55007;SDS011;40902;45.116;21.296;2022-11-15T09:33:54;29.58;;;18.90;;
55007;SDS011;40902;45.116;21.296;2022-11-15T09:36:20;32.75;;;20.08;;
55007;SDS011;40902;45.116;21.296;2022-11-15T09:38:46;33.28;;;20.63;;
55007;SDS011;40902;45.116;21.296;2022-11-15T09:46:42;36.60;;;20.40;;
55007;SDS011;40902;45.116;21.296;2022-11-15T09:49:15;29.52;;;17.85;;
55007;SDS011;40902;45.116;21.296;2022-11-15T09:51:43;27.83;;;16.10;;
55007;SDS011;40902;45.116;21.296;2022-11-15T09:56:44;25.90;;;16.92;;
55007;SDS011;40902;45.116;21.296;2022-11-15T10:05:17;28.00;;;17.40;;
55007;SDS011;40902;45.116;21.296;2022-11-15T10:13:15;26.40;;;16.30;;
55007;SDS011;40902;45.116;21.296;2022-11-15T10:15:47;26.55;;;16.13;;
55007;SDS011;40902;45.116;21.296;2022-11-15T10:20:58;31.05;;;18.05;;
55007;SDS011;40902;45.116;21.296;2022-11-15T10:23:25;29.58;;;17.25;;
55007;SDS011;40902;45.116;21.296;2022-11-15T10:25:57;31.80;;;18.58;;
55007;SDS011;40902;45.116;21.296;2022-11-15T10:28:30;28.17;;;18.10;;
55007;SDS011;40902;45.116;21.296;2022-11-15T10:30:57;28.25;;;16.90;;
55007;SDS011;40902;45.116;21.296;2022-11-15T10:46:32;33.25;;;20.25;;
55007;SDS011;40902;45.116;21.296;2022-11-15T10:56:58;25.30;;;14.98;;
55007;SDS011;40902;45.116;21.296;2022-11-15T10:59:30;25.55;;;15.45;;
55007;SDS011;40902;45.116;21.296;2022-11-15T11:01:58;25.13;;;16.23;;
55007;SDS011;40902;45.116;21.296;2022-11-15T11:04:25;22.17;;;15.18;;
55007;SDS011;40902;45.116;21.296;2022-11-15T11:12:05;22.80;;;13.18;;
55007;SDS011;40902;45.116;21.296;2022-11-15T11:14:35;19.50;;;12.25;;
55007;SDS011;40902;45.116;21.296;2022-11-15T11:25:19;22.45;;;13.07;;
55007;SDS011;40902;45.116;21.296;2022-11-15T12:29:39;21.92;;;14.43;;
55007;SDS011;40902;45.116;21.296;2022-11-15T12:34:56;21.30;;;13.90;;
55007;SDS011;40902;45.116;21.296;2022-11-15T12:42:58;23.42;;;15.13;;
55007;SDS011;40902;45.116;21.296;2022-11-15T12:56:17;27.17;;;17.45;;
55007;SDS011;40902;45.116;21.296;2022-11-15T12:58:55;25.15;;;16.38;;
55007;SDS011;40902;45.116;21.296;2022-11-15T13:02:16;24.95;;;16.00;;
55007;SDS011;40902;45.116;21.296;2022-11-15T13:06:52;24.75;;;16.60;;
55007;SDS011;40902;45.116;21.296;2022-11-15T13:12:03;28.13;;;16.67;;
55007;SDS011;40902;45.116;21.296;2022-11-15T13:19:45;30.73;;;19.20;;
55007;SDS011;40902;45.116;21.296;2022-11-15T13:22:18;29.45;;;17.70;;
55007;SDS011;40902;45.116;21.296;2022-11-15T13:25:02;23.70;;;15.55;;
55007;SDS011;40902;45.116;21.296;2022-11-15T13:27:29;28.30;;;16.08;;
55007;SDS011;40902;45.116;21.296;2022-11-15T13:29:56;24.92;;;16.52;;
55007;SDS011;40902;45.116;21.296;2022-11-15T13:32:21;21.88;;;15.30;;
55007;SDS011;40902;45.116;21.296;2022-11-15T13:34:48;23.85;;;15.57;;
55007;SDS011;40902;45.116;21.296;2022-11-15T13:39:46;27.00;;;16.88;;
55007;SDS011;40902;45.116;21.296;2022-11-15T13:42:20;25.52;;;16.33;;
55007;SDS011;40902;45.116;21.296;2022-11-15T13:44:59;23.10;;;14.93;;
55007;SDS011;40902;45.116;21.296;2022-11-15T13:47:27;24.80;;;16.90;;
55007;SDS011;40902;45.116;21.296;2022-11-15T13:49:57;30.50;;;19.05;;
55007;SDS011;40902;45.116;21.296;2022-11-15T13:52:26;31.40;;;19.13;;
55007;SDS011;40902;45.116;21.296;2022-11-15T13:55:00;40.35;;;22.63;;
55007;SDS011;40902;45.116;21.296;2022-11-15T13:57:42;43.03;;;24.85;;
55007;SDS011;40902;45.116;21.296;2022-11-15T14:05:39;36.15;;;21.70;;
55007;SDS011;40902;45.116;21.296;2022-11-15T14:08:13;31.83;;;20.40;;
55007;SDS011;40902;45.116;21.296;2022-11-15T14:10:48;28.80;;;16.70;;
55007;SDS011;40902;45.116;21.296;2022-11-15T14:13:38;25.42;;;17.08;;
55007;SDS011;40902;45.116;21.296;2022-11-15T14:16:37;27.25;;;17.20;;
55007;SDS011;40902;45.116;21.296;2022-11-15T14:19:02;25.00;;;15.80;;
55007;SDS011;40902;45.116;21.296;2022-11-15T14:21:29;29.38;;;16.35;;
55007;SDS011;40902;45.116;21.296;2022-11-15T14:26:45;22.65;;;15.30;;
55007;SDS011;40902;45.116;21.296;2022-11-15T14:29:27;28.15;;;17.00;;
55007;SDS011;40902;45.116;21.296;2022-11-15T14:31:55;29.70;;;16.60;;
55007;SDS011;40902;45.116;21.296;2022-11-15T14:34:39;27.48;;;16.25;;
55007;SDS011;40902;45.116;21.296;2022-11-15T14:37:08;27.27;;;17.73;;
55007;SDS011;40902;45.116;21.296;2022-11-15T14:39:53;24.80;;;16.92;;
55007;SDS011;40902;45.116;21.296;2022-11-15T14:42:20;26.95;;;16.17;;
55007;SDS011;40902;45.116;21.296;2022-11-15T14:44:47;30.50;;;18.77;;
55007;SDS011;40902;45.116;21.296;2022-11-15T14:47:13;31.08;;;18.30;;
55007;SDS011;40902;45.116;21.296;2022-11-15T14:49:39;26.92;;;17.73;;
55007;SDS011;40902;45.116;21.296;2022-11-15T14:52:23;27.83;;;17.35;;
55007;SDS011;40902;45.116;21.296;2022-11-15T14:54:49;30.15;;;17.35;;
55007;SDS011;40902;45.116;21.296;2022-11-15T14:57:15;29.52;;;17.65;;
55007;SDS011;40902;45.116;21.296;2022-11-15T14:59:40;29.48;;;17.10;;
55007;SDS011;40902;45.116;21.296;2022-11-15T15:02:39;29.70;;;19.20;;
55007;SDS011;40902;45.116;21.296;2022-11-15T15:04:58;29.42;;;17.45;;
55007;SDS011;40902;45.116;21.296;2022-11-15T15:07:26;30.73;;;18.08;;
55007;SDS011;40902;45.116;21.296;2022-11-15T15:09:51;28.30;;;18.42;;
55007;SDS011;40902;45.116;21.296;2022-11-15T15:12:21;36.88;;;23.50;;
55007;SDS011;40902;45.116;21.296;2022-11-15T15:14:49;35.67;;;21.67;;
55007;SDS011;40902;45.116;21.296;2022-11-15T15:17:15;31.40;;;20.13;;
55007;SDS011;40902;45.116;21.296;2022-11-15T15:19:41;31.13;;;19.20;;
55007;SDS011;40902;45.116;21.296;2022-11-15T15:22:17;33.50;;;20.00;;
55007;SDS011;40902;45.116;21.296;2022-11-15T15:24:46;29.67;;;19.13;;
55007;SDS011;40902;45.116;21.296;2022-11-15T15:27:13;30.85;;;18.58;;
55007;SDS011;40902;45.116;21.296;2022-11-15T15:29:39;34.50;;;20.52;;
55007;SDS011;40902;45.116;21.296;2022-11-15T15:32:05;32.20;;;19.75;;
55007;SDS011;40902;45.116;21.296;2022-11-15T15:34:31;33.30;;;20.30;;
55007;SDS011;40902;45.116;21.296;2022-11-15T15:39:52;37.40;;;22.30;;
55007;SDS011;40902;45.116;21.296;2022-11-15T15:42:19;37.22;;;22.23;;
55007;SDS011;40902;45.116;21.296;2022-11-15T15:44:45;36.67;;;22.80;;
55007;SDS011;40902;45.116;21.296;2022-11-15T15:47:15;35.55;;;21.10;;
55007;SDS011;40902;45.116;21.296;2022-11-15T15:49:44;37.20;;;22.50;;
55007;SDS011;40902;45.116;21.296;2022-11-15T15:52:09;37.58;;;23.52;;
55007;SDS011;40902;45.116;21.296;2022-11-15T15:54:36;41.00;;;25.33;;
55007;SDS011;40902;45.116;21.296;2022-11-15T15:57:02;39.42;;;24.08;;
55007;SDS011;40902;45.116;21.296;2022-11-15T15:59:28;40.92;;;25.65;;
55007;SDS011;40902;45.116;21.296;2022-11-15T16:01:54;41.70;;;24.45;;
55007;SDS011;40902;45.116;21.296;2022-11-15T16:04:19;46.03;;;27.05;;
55007;SDS011;40902;45.116;21.296;2022-11-15T16:06:45;49.10;;;29.08;;
55007;SDS011;40902;45.116;21.296;2022-11-15T16:09:14;53.08;;;31.15;;
55007;SDS011;40902;45.116;21.296;2022-11-15T16:11:41;56.03;;;30.85;;
55007;SDS011;40902;45.116;21.296;2022-11-15T16:14:08;52.67;;;28.88;;
55007;SDS011;40902;45.116;21.296;2022-11-15T16:16:34;43.63;;;26.00;;
55007;SDS011;40902;45.116;21.296;2022-11-15T16:19:01;41.63;;;24.65;;
55007;SDS011;40902;45.116;21.296;2022-11-15T16:21:27;45.58;;;26.60;;
55007;SDS011;40902;45.116;21.296;2022-11-15T16:23:53;43.85;;;26.05;;
55007;SDS011;40902;45.116;21.296;2022-11-15T16:26:28;43.25;;;24.63;;
55007;SDS011;40902;45.116;21.296;2022-11-15T16:28:54;42.28;;;24.55;;
55007;SDS011;40902;45.116;21.296;2022-11-15T16:31:20;40.95;;;24.15;;
55007;SDS011;40902;45.116;21.296;2022-11-15T16:33:46;45.55;;;25.73;;
55007;SDS011;40902;45.116;21.296;2022-11-15T16:36:19;32.15;;;20.83;;
55007;SDS011;40902;45.116;21.296;2022-11-15T16:38:49;37.38;;;21.27;;
55007;SDS011;40902;45.116;21.296;2022-11-15T16:41:15;34.53;;;20.30;;
55007;SDS011;40902;45.116;21.296;2022-11-15T16:43:45;34.58;;;19.90;;
55007;SDS011;40902;45.116;21.296;2022-11-15T16:46:13;34.63;;;20.67;;
55007;SDS011;40902;45.116;21.296;2022-11-15T16:48:47;36.58;;;20.25;;
55007;SDS011;40902;45.116;21.296;2022-11-15T16:51:13;36.33;;;21.58;;
55007;SDS011;40902;45.116;21.296;2022-11-15T16:53:40;47.70;;;26.77;;
55007;SDS011;40902;45.116;21.296;2022-11-15T16:56:15;47.25;;;28.02;;
55007;SDS011;40902;45.116;21.296;2022-11-15T16:58:51;50.45;;;30.27;;
55007;SDS011;40902;45.116;21.296;2022-11-15T17:01:28;46.75;;;28.13;;
55007;SDS011;40902;45.116;21.296;2022-11-15T17:03:59;44.50;;;25.80;;
55007;SDS011;40902;45.116;21.296;2022-11-15T17:06:41;42.05;;;26.45;;
55007;SDS011;40902;45.116;21.296;2022-11-15T17:09:12;42.75;;;24.85;;
55007;SDS011;40902;45.116;21.296;2022-11-15T17:11:40;41.72;;;23.48;;
55007;SDS011;40902;45.116;21.296;2022-11-15T17:14:07;42.15;;;24.75;;
55007;SDS011;40902;45.116;21.296;2022-11-15T17:16:33;42.92;;;26.17;;
55007;SDS011;40902;45.116;21.296;2022-11-15T17:19:00;43.58;;;26.35;;
55007;SDS011;40902;45.116;21.296;2022-11-15T17:21:26;40.10;;;22.98;;
55007;SDS011;40902;45.116;21.296;2022-11-15T17:23:52;38.65;;;22.48;;
55007;SDS011;40902;45.116;21.296;2022-11-15T17:26:19;35.78;;;22.27;;
55007;SDS011;40902;45.116;21.296;2022-11-15T17:28:45;37.75;;;22.13;;
55007;SDS011;40902;45.116;21.296;2022-11-15T17:31:11;33.50;;;22.00;;
55007;SDS011;40902;45.116;21.296;2022-11-15T17:33:38;32.00;;;20.50;;
55007;SDS011;40902;45.116;21.296;2022-11-15T17:36:06;34.85;;;22.08;;
55007;SDS011;40902;45.116;21.296;2022-11-15T17:38:35;36.60;;;21.75;;
55007;SDS011;40902;45.116;21.296;2022-11-15T17:41:09;31.67;;;19.73;;
55007;SDS011;40902;45.116;21.296;2022-11-15T17:43:39;39.83;;;22.60;;
55007;SDS011;40902;45.116;21.296;2022-11-15T17:46:06;45.60;;;25.15;;
55007;SDS011;40902;45.116;21.296;2022-11-15T17:48:36;47.22;;;24.73;;
55007;SDS011;40902;45.116;21.296;2022-11-15T17:51:03;40.50;;;24.27;;